FCA weather

Glacier Park International Airport
Kalispell, Montana, United States

Public forecast

Using degrees Fahrenheit for public forecast. Weather courtesy of forecast.io.

Current aviation weather report (METAR) for Glacier Park International Airport

Retrieved 2019/11/22 01:55 UTC (12 minutes ago):

KGPI 220155Z 00000KT 10SM CLR M03/M06 A3007 RMK AO2 SLP221 T10281056

Aviation forecast (TAF) for Glacier Park International Airport

Retrieved 2019-11-22 00:27 UTC (2 hours ago):

TAF KGPI 212325Z 2200/2224 VRB03KT P6SM SKC FM220900 00000KT P6SM VCFG SCT010